Date,TemperatureHighF,TemperatureAvgF,TemperatureLowF,DewpointHighF,DewpointAvgF,DewpointLowF,HumidityHigh,HumidityAvg,HumidityLow,PressureMaxIn,PressureMinIn,WindSpeedMaxMPH,WindSpeedAvgMPH,GustSpeedMaxMPH,PrecipitationSumIn
2013-1-1,79,67,58,62,59,54,91,77,53,17.72,17.72,11,1,11,0.00
2013-1-2,79,68,60,69,63,58,94,86,67,17.72,17.72,11,1,12,0.00
2013-1-3,80,70,63,71,65,61,95,85,55,17.72,17.72,13,1,15,0.00
2013-1-4,75,70,66,69,66,62,93,89,81,31.01,17.72,6,0,8,0.00
2013-1-5,80,70,64,67,64,61,93,82,64,31.01,17.72,8,1,10,0.00
2013-1-6,81,72,67,72,68,64,94,86,68,31.01,31.01,10,1,12,0.00
2013-1-7,74,70,67,69,67,64,95,90,80,31.01,31.01,6,0,9,0.00
2013-1-8,84,73,65,73,67,63,95,85,59,31.01,31.01,12,1,12,0.00
2013-1-9,86,76,69,72,68,63,95,79,50,31.01,31.01,11,2,15,0.00
2013-1-10,85,74,68,70,65,60,93,74,46,31.01,31.01,13,2,17,0.00
2013-1-11,84,72,64,70,64,60,93,76,49,31.01,31.01,12,1,13,0.00
2013-1-12,84,73,67,71,66,64,92,79,55,31.01,31.01,10,1,10,0.00
2013-1-13,84,72,65,69,65,61,92,79,55,31.01,31.01,9,1,10,0.00
2013-1-14,82,70,64,66,62,60,90,77,55,31.01,31.01,9,1,9,0.00
2013-1-15,84,70,61,69,62,58,93,77,50,31.01,31.01,8,1,9,0.00
2013-1-16,82,71,62,68,63,58,93,76,47,31.01,31.01,10,1,10,0.00
2013-1-17,80,68,61,71,61,50,93,79,63,31.01,31.01,13,1,13,0.00
2013-1-18,69,61,50,56,48,35,86,62,49,31.01,31.01,9,1,9,0.00
2013-1-19,77,68,59,65,61,56,92,81,63,31.01,31.01,7,0,8,0.00
2013-1-20,80,70,66,68,64,62,91,82,62,31.01,31.01,5,0,6,0.00
2013-1-21,76,68,64,67,63,60,90,84,70,31.01,31.01,8,1,11,0.00
2013-1-22,74,64,59,60,51,40,88,63,44,31.01,31.01,8,1,9,0.00
2013-1-23,75,63,55,50,42,37,57,47,36,31.01,31.01,8,0,9,0.00
2013-1-24,75,62,51,50,46,41,79,58,32,31.01,31.01,8,0,8,0.00
2013-1-25,77,62,51,54,49,45,84,63,42,31.01,31.01,8,0,9,0.00
2013-1-26,78,63,51,52,49,46,82,63,37,31.01,31.01,6,0,7,0.00
2013-1-27,80,67,55,59,54,51,85,65,40,31.01,31.01,10,1,11,0.00
2013-1-28,86,72,64,64,60,57,86,68,44,31.01,31.01,14,2,14,0.00
2013-1-29,84,72,64,69,64,59,91,77,52,31.01,31.01,12,2,12,0.00
2013-1-30,83,73,66,68,65,63,91,79,54,31.01,31.01,15,3,20,0.00
2013-1-31,72,65,52,69,54,34,92,70,42,31.01,31.01,12,1,12,0.00
2013-2-1,71,58,48,45,37,30,64,47,34,31.01,31.01,6,1,9,0.00
2013-2-2,76,60,48,49,42,32,70,53,38,31.01,31.01,8,1,10,0.00
2013-2-3,74,62,50,52,45,40,74,55,31,31.01,31.01,8,0,9,0.00
2013-2-4,73,60,47,51,44,35,83,60,30,31.01,31.01,9,1,11,0.00
2013-2-5,79,65,51,58,50,42,78,61,43,31.01,31.01,10,1,10,0.00
2013-2-6,84,70,58,64,59,53,84,70,46,31.01,31.01,10,1,10,0.00
2013-2-7,82,72,63,66,63,58,89,74,46,31.01,31.01,14,2,15,0.00
2013-2-8,83,73,64,70,62,50,94,73,39,31.01,31.01,14,2,15,0.00
2013-2-9,81,69,59,63,58,54,90,70,45,31.01,31.01,10,1,14,0.00
2013-2-10,84,71,63,63,60,56,84,69,41,31.01,31.01,12,2,15,0.00
2013-2-11,84,72,64,67,63,60,89,75,50,31.01,31.01,14,2,14,0.00
2013-2-12,83,73,65,71,67,62,93,83,65,31.01,31.01,15,2,20,0.00
2013-2-13,83,75,69,74,70,64,95,87,68,31.01,31.01,16,4,18,0.00
2013-2-14,74,66,63,71,62,58,93,89,72,31.01,31.01,9,1,9,0.00
2013-2-16,66,64,60,53,50,46,64,60,55,17.72,17.72,6,1,10,0.00
2013-2-26,83,74,70,73,70,66,90,86,73,22.18,19.40,17,2,19,1.97
2013-2-27,78,70,66,66,63,59,92,80,57,19.40,17.72,8,0,8,0.04
2013-2-28,76,67,62,59,55,51,82,68,47,18.46,17.72,10,1,10,0.00
2013-3-1,70,64,59,57,49,40,75,58,46,18.46,17.72,8,0,10,0.00
2013-3-2,65,59,56,45,41,38,61,52,47,17.72,17.72,8,0,8,0.00
2013-3-3,63,55,47,48,42,35,84,62,45,17.72,17.72,12,1,14,0.12
2013-3-4,71,55,42,44,39,34,76,57,35,17.72,17.72,9,1,12,0.00
2013-3-5,78,60,46,56,49,40,88,68,46,17.72,17.72,13,2,15,0.00
2013-3-6,72,64,54,63,51,39,90,66,38,17.72,17.72,11,2,16,0.00
2013-3-7,74,58,48,46,39,32,71,51,34,17.72,17.72,10,1,10,0.00
2013-3-8,81,61,46,50,45,40,79,58,31,17.72,17.72,8,1,9,0.00
2013-3-9,79,65,51,52,47,43,83,57,32,17.72,17.72,11,1,11,0.00
2013-3-10,86,69,58,57,53,50,77,59,35,17.72,17.72,15,2,15,0.00
2013-3-11,84,70,60,62,57,54,85,67,43,17.72,17.72,14,3,17,0.00
2013-3-12,75,68,60,69,63,53,90,83,77,17.72,17.72,15,2,20,0.00
2013-3-13,86,65,55,53,48,43,84,57,28,17.72,17.72,10,1,10,0.00
2013-3-14,79,62,53,47,40,10,74,47,10,17.72,17.72,9,2,10,0.00
2013-3-15,85,62,48,44,40,34,71,47,21,17.72,17.72,8,1,12,0.00
2013-3-16,81,64,51,53,46,40,81,55,32,17.72,17.72,15,2,15,0.00
2013-3-17,80,66,55,59,54,49,82,66,44,17.72,17.72,13,2,13,0.00
2013-3-18,80,69,64,70,63,56,92,82,66,17.72,17.72,11,2,14,0.20
2013-3-19,85,72,67,68,66,64,94,82,56,17.72,17.72,13,2,15,0.04
2013-3-20,78,68,63,66,62,58,93,82,55,17.72,17.72,14,1,14,0.08
2013-3-21,84,67,58,63,52,42,92,63,28,17.72,17.72,10,1,10,0.00
2013-3-22,83,67,53,69,55,39,90,66,52,17.72,17.72,15,2,15,0.00
2013-3-23,88,76,70,74,69,67,95,80,54,17.72,17.72,18,3,20,0.20
2013-3-24,84,76,70,75,71,66,93,86,72,17.72,17.72,24,5,26,0.12
2013-3-25,81,72,60,73,55,37,93,60,31,17.72,17.72,10,1,10,0.04
2013-3-26,71,60,52,45,39,34,64,47,34,17.72,17.72,10,1,12,0.00
2013-3-27,73,57,47,42,36,30,58,46,32,17.72,17.72,10,1,11,0.00
2013-3-28,84,60,46,44,39,22,71,48,12,17.72,17.72,8,1,10,0.00
2013-3-29,86,64,50,46,43,38,71,48,22,17.72,17.72,9,1,10,0.00
2013-3-30,82,67,56,54,50,42,78,55,36,17.72,17.72,11,2,12,0.00
2013-3-31,86,70,59,60,56,51,81,63,41,17.72,17.72,15,2,18,0.00
2013-4-1,87,74,65,70,64,60,91,74,48,17.72,17.72,13,2,17,0.00
2013-4-2,89,75,67,68,64,58,91,71,41,17.72,17.72,10,1,11,0.00
2013-4-3,90,76,67,69,65,61,89,70,43,17.72,17.72,13,3,15,0.00
2013-4-4,82,72,68,72,68,64,92,85,70,17.72,17.72,13,2,13,0.24
2013-4-5,75,69,64,67,63,55,93,80,55,17.72,17.72,13,2,14,0.43
2013-4-6,86,69,61,62,58,55,83,68,43,17.72,17.72,10,1,10,0.00
2013-4-7,91,73,62,64,60,57,89,67,36,17.72,17.72,11,2,15,0.00
2013-4-8,71,69,66,61,61,59,80,74,70,17.72,17.72,5,0,5,0.00
2013-4-24,96,81,65,67,64,60,87,58,37,17.72,17.72,10,2,10,0.00
2013-4-25,102,79,67,67,63,60,87,62,31,17.72,17.72,8,1,12,0.00
2013-4-26,102,79,65,67,61,56,83,58,31,17.72,17.72,11,1,13,0.00
2013-4-27,100,79,68,66,62,56,87,58,31,17.72,17.72,13,2,14,0.00
2013-4-28,96,79,68,70,63,59,80,62,37,17.72,17.72,13,3,13,0.00
2013-4-29,92,77,68,70,65,60,82,66,44,17.72,17.72,14,2,14,0.00
2013-4-30,98,78,70,74,68,65,89,73,44,17.72,17.72,15,2,15,0.00
2013-5-1,81,73,70,74,69,67,93,89,78,17.72,17.72,15,3,18,0.00
2013-5-2,85,71,68,76,68,66,94,91,72,17.72,17.72,6,6,6,0.00
2013-5-3,97,76,65,71,67,63,94,77,41,17.72,17.72,6,6,6,0.00
2013-5-4,88,76,70,70,67,63,89,74,48,17.72,17.72,6,6,6,0.00
2013-5-5,96,75,67,67,58,50,87,59,28,17.72,17.72,6,6,6,0.00
2013-5-6,89,73,63,64,59,56,85,64,40,17.72,17.72,6,6,6,0.00
2013-5-7,90,72,61,62,58,55,83,63,38,17.72,17.72,6,6,6,0.00
2013-5-8,96,74,62,63,58,50,87,61,29,17.72,17.72,6,6,6,0.00
2013-5-9,101,77,62,63,58,52,86,58,26,17.72,17.72,6,6,6,0.00
2013-5-10,102,81,67,72,67,62,87,66,36,17.72,17.72,6,6,6,0.00
2013-5-11,99,82,71,75,71,67,89,72,44,17.72,17.72,6,6,6,0.00
2013-5-12,94,82,74,77,73,68,91,75,51,17.72,17.72,6,6,6,0.00
2013-5-13,99,80,72,72,67,50,89,66,39,17.72,17.72,6,6,6,0.00
2013-5-14,104,78,65,61,54,49,71,46,24,17.72,17.72,6,6,6,0.00
2013-5-15,100,78,64,63,57,53,77,51,29,17.72,17.72,6,6,6,0.00
2013-5-16,104,80,66,63,60,54,80,54,26,17.72,17.72,6,6,6,0.00
2013-5-17,99,80,68,67,63,60,82,60,30,17.72,17.72,6,6,6,0.00
2013-5-24,103,88,77,73,65,59,65,46,37,29.97,29.88,0,0,0,0.00
2013-5-25,106,83,71,73,66,58,85,60,29,30.06,29.94,0,0,0,0.00
2013-5-26,104,81,69,65,63,59,81,57,29,30.09,29.97,0,0,0,0.00
2013-5-27,96,80,70,70,65,61,80,62,40,30.06,29.94,0,0,0,0.00
2013-5-28,92,80,74,74,71,68,87,76,49,30.00,29.91,0,0,0,0.00
2013-5-29,74,74,73,69,69,68,86,85,84,29.94,29.94,0,0,0,0.04
2013-5-30,78,76,73,73,71,69,86,83,82,29.94,29.91,0,0,0,0.16
2013-5-31,88,78,73,77,72,70,91,82,65,29.94,29.88,0,0,0,0.39
2013-9-25,83,75,0,75,69,32,86,73,55,30.42,30.32,0,0,0,0.50
2013-9-26,89,80,76,79,75,72,92,85,69,30.37,30.31,4,0,5,0.81
2013-9-27,92,83,74,76,72,67,87,69,52,30.45,30.35,3,2,5,0.00
2013-9-28,95,82,74,75,71,68,85,70,49,30.49,30.39,8,1,8,0.00
2013-9-29,94,82,74,73,70,66,85,68,48,30.48,29.80,5,1,6,0.00
2013-9-30,98,83,73,74,71,68,85,69,43,29.93,29.82,5,1,8,0.00
2013-10-1,97,84,74,76,71,69,85,68,42,29.97,29.87,2,2,2,0.00
2013-10-2,95,83,76,76,72,69,82,70,51,29.97,29.87,5,2,11,0.00
2013-10-3,94,81,76,77,73,70,86,77,56,29.98,29.87,5,1,8,0.41
2013-10-4,92,79,75,77,72,69,88,81,54,30.00,29.91,2,0,2,0.00
2013-10-5,95,85,75,74,70,68,83,63,44,29.98,29.85,6,1,9,0.01
2013-10-6,92,82,73,76,71,68,85,71,50,29.91,29.81,4,1,7,0.00
2013-10-7,90,81,77,77,74,71,85,77,66,29.83,29.74,7,2,12,0.01
2013-10-8,90,81,75,74,71,68,84,72,58,29.87,29.77,6,1,8,1.24
2013-10-9,90,81,75,74,71,68,83,73,58,29.95,29.85,4,1,5,0.00
2013-10-10,92,80,72,73,69,66,83,69,49,29.98,29.87,3,1,5,0.00
2013-10-11,94,82,70,70,65,62,83,60,39,29.96,29.87,2,0,5,0.00
2013-10-12,76,74,72,64,64,63,74,70,66,29.92,29.90,0,0,0,0.00
2013-10-13,91,84,76,72,66,61,67,54,45,30.00,29.89,3,1,5,1.24
2013-10-14,92,79,71,69,65,63,80,64,42,29.97,29.84,3,1,7,0.00
2013-10-15,93,81,72,71,67,65,81,65,42,29.92,29.80,3,1,7,0.00
2013-10-16,90,79,72,74,69,65,84,71,49,29.90,29.82,5,1,5,0.00
2013-10-17,92,80,71,73,68,65,85,69,49,29.92,29.82,5,1,6,0.00
2013-10-18,96,82,73,73,70,68,85,68,45,29.92,29.82,5,1,8,0.00
2013-10-19,91,81,76,76,72,70,82,75,61,29.90,29.85,4,1,7,0.00
2013-10-20,93,86,77,76,73,70,87,67,51,29.90,29.82,4,1,6,0.00
2013-10-21,93,83,75,76,73,70,85,72,56,29.94,29.84,5,1,6,0.00
2013-10-22,91,83,75,77,74,70,88,75,60,29.87,29.78,10,2,10,1.36
2013-10-23,86,79,73,75,70,57,87,74,56,29.92,29.76,3,0,6,0.10
2013-10-24,79,73,69,62,58,53,66,59,56,30.05,29.91,4,2,7,0.00
2013-10-25,84,75,66,66,61,58,77,63,50,30.14,30.05,5,1,6,0.00
2013-10-26,88,74,65,66,60,55,77,62,40,30.12,30.00,3,1,5,0.00
2013-10-27,86,74,65,64,58,56,74,60,41,30.04,29.96,3,1,7,0.00
2013-10-28,90,76,65,67,62,58,80,64,44,30.10,30.01,3,1,7,0.00
2013-10-29,90,77,68,69,64,61,78,65,48,30.14,30.02,8,2,8,0.00
2013-10-30,90,78,69,69,64,62,82,64,42,30.14,30.00,9,1,9,0.00
2013-10-31,91,78,69,71,66,62,81,68,45,30.05,29.91,9,2,10,0.00
2013-11-1,89,78,70,73,69,64,87,74,56,29.95,29.83,9,1,10,0.00
2013-11-2,84,76,71,74,68,62,90,78,66,29.91,29.77,6,1,8,0.01
2013-11-3,84,74,66,62,55,49,77,54,31,30.01,29.88,6,2,8,0.00
2013-11-4,85,74,65,62,58,50,69,59,45,30.05,29.97,8,2,8,0.00
2013-11-5,87,77,70,70,66,61,78,69,55,30.02,29.95,9,2,10,0.00
2013-11-6,91,79,72,71,67,65,81,68,51,30.01,29.91,6,1,10,0.00
2013-11-7,86,77,71,72,67,64,83,71,57,29.97,29.88,3,0,4,0.00
2013-11-8,88,76,69,71,66,63,84,72,56,30.00,29.91,4,1,10,1.47
2013-11-9,81,74,71,70,66,63,81,76,68,30.05,29.97,4,2,9,0.00
2013-11-10,89,78,72,72,68,65,83,71,54,30.07,29.97,4,1,7,0.00
2013-11-11,91,78,70,70,66,63,82,67,45,30.06,29.96,5,1,10,0.00
2013-11-12,89,77,70,70,66,64,83,68,51,30.03,29.90,4,1,6,0.00
2013-11-13,75,70,63,66,58,50,79,65,56,30.17,29.95,9,3,12,0.00
2013-11-14,82,70,61,60,55,50,72,61,44,30.17,30.06,8,2,12,0.00
2013-11-15,84,74,67,68,62,56,73,66,58,30.10,29.95,8,2,11,0.00
2013-11-16,81,75,72,72,66,64,86,75,66,30.02,29.94,4,1,9,1.47
2013-11-17,90,78,70,72,68,64,85,73,55,30.00,29.91,6,1,9,0.00
2013-11-18,87,75,69,73,68,64,86,78,57,29.96,29.86,2,1,5,0.00
2013-11-19,86,79,72,73,70,66,87,75,64,29.89,29.79,6,1,7,0.00
2013-11-20,76,72,70,70,66,64,85,82,78,29.97,29.87,2,1,3,0.00
2013-11-22,84,79,74,69,67,66,75,67,60,30.04,29.99,3,1,7,1.47
2013-11-23,88,79,70,72,68,62,80,70,57,30.03,29.90,5,1,8,1.47
2013-11-24,82,74,67,69,64,60,83,73,62,30.10,29.93,6,2,10,0.00
2013-11-25,80,72,67,64,62,58,79,70,57,30.11,29.97,5,2,13,0.00
2013-11-26,87,74,70,73,68,64,89,84,63,29.96,29.73,8,3,8,0.00
2013-11-27,74,70,58,71,62,48,90,76,58,30.11,29.70,9,2,10,0.00
2013-11-28,71,58,48,54,46,38,73,66,54,30.23,30.10,4,1,6,0.00
2013-11-29,78,68,56,62,56,50,81,68,54,30.23,30.12,7,2,7,0.00
2013-11-30,80,70,60,66,62,53,83,74,63,30.19,30.07,8,2,8,1.47
2013-12-1,77,69,64,67,63,58,88,81,72,30.08,29.93,4,1,5,0.00
2013-12-2,78,70,64,65,63,60,88,78,61,29.88,29.77,4,1,4,0.00
2013-12-3,81,72,66,66,63,60,85,75,60,29.92,29.83,6,1,8,0.00
2013-12-4,85,74,65,70,64,60,88,73,53,30.01,29.90,6,1,8,0.00
2013-12-5,85,74,67,71,66,62,87,75,57,30.09,30.00,6,1,10,0.00
2013-12-6,87,75,68,73,68,63,89,77,59,30.11,30.00,7,1,9,0.00
2013-12-7,87,74,66,71,66,60,87,76,56,30.15,30.05,5,1,6,0.00
2013-12-8,88,76,69,71,66,64,88,74,52,30.13,30.01,7,1,11,0.00
2013-12-9,87,75,69,72,66,63,88,75,55,30.10,30.00,6,1,9,0.00
2013-12-10,86,75,66,71,66,61,89,76,55,30.09,30.01,6,1,8,0.00
2013-12-11,86,75,69,72,67,64,87,76,59,30.16,30.05,5,1,7,0.00
2013-12-12,73,70,61,67,61,46,88,76,52,30.19,30.08,4,1,5,0.00
2013-12-13,81,68,57,63,56,46,77,66,54,30.17,30.02,4,2,10,0.00
2013-12-14,86,74,66,71,65,60,88,75,59,30.03,29.89,7,2,10,0.00
2013-12-16,74,68,59,59,55,50,72,62,57,30.13,30.03,4,1,4,1.47
2013-12-17,78,64,54,63,54,46,77,70,56,30.15,30.04,4,1,5,0.00
2013-12-18,75,65,57,54,49,44,79,59,38,30.21,30.11,4,1,5,0.00
2013-12-19,80,65,55,61,53,45,75,65,49,30.18,30.07,6,1,9,0.00
2013-12-20,85,72,63,69,63,55,83,72,57,30.10,30.00,9,2,13,0.00
2013-12-21,87,76,68,72,68,63,89,77,59,30.06,29.94,8,2,11,0.00
2013-12-22,85,76,70,72,68,64,89,78,63,30.08,29.98,6,2,10,0.00
2013-12-23,85,76,70,74,69,65,90,81,64,30.10,30.03,7,2,9,0.00
2013-12-24,75,70,61,69,62,46,90,76,52,30.14,30.04,4,1,7,0.00
2013-12-25,79,69,59,65,57,46,72,66,60,30.12,30.01,6,2,8,0.00
2013-12-26,83,72,65,68,63,57,79,72,60,30.11,29.98,6,1,7,0.00
2013-12-27,85,74,67,70,65,61,83,74,60,30.13,30.00,6,2,9,0.00
2013-12-28,83,74,68,71,67,63,86,78,65,30.11,29.95,10,2,11,0.00
2013-12-29,78,74,71,74,70,65,91,85,80,29.95,29.85,11,2,11,0.00
2013-12-30,78,71,67,66,63,60,82,75,65,30.08,29.94,3,1,5,0.00
2013-12-31,76,72,65,59,56,53,72,59,48,30.19,30.10,5,2,8,0.00
2014-1-1,84,73,65,71,64,56,86,75,65,30.13,29.97,4,1,8,0.00
2014-1-2,82,74,68,72,68,65,90,83,71,29.97,29.81,9,2,14,0.00